Time;durP1;ratioP1;P1;durP2;ratioP2;P2;SDS_P1;SDS_P2;PMS_P1;PMS_P2;Temp;Humidity;BMP_temperature;BMP_pressure;BME280_temperature;BME280_humidity;BME280_pressure;Samples;Min_cycle;Max_cycle;Signal;HPM_P1;HPM_P2
2021/08/18 00:00:47;;;;;;;8.37;5.03;;;14.60;88.60;;;;;;5037874;28;20520;-68
2021/08/18 00:03:15;;;;;;;8.57;6.33;;;14.60;89.60;;;;;;5037907;28;20852;-68
2021/08/18 00:05:54;;;;;;;10.30;5.10;;;14.70;90.20;;;;;;5037941;28;20461;-68
2021/08/18 00:08:22;;;;;;;6.90;4.60;;;14.70;89.80;;;;;;5038676;28;20485;-68
2021/08/18 00:10:50;;;;;;;9.70;5.77;;;14.70;90.00;;;;;;5038395;28;20476;-72
2021/08/18 00:13:22;;;;;;;8.97;5.50;;;14.80;90.30;;;;;;5038315;28;20491;-68
2021/08/18 00:15:56;;;;;;;9.60;5.90;;;14.80;90.10;;;;;;5037891;28;20445;-68
2021/08/18 00:18:23;;;;;;;8.27;6.00;;;14.80;90.30;;;;;;5038230;28;20484;-69
2021/08/18 00:21:09;;;;;;;8.60;5.53;;;14.80;90.40;;;;;;5037767;28;20476;-69
2021/08/18 00:23:42;;;;;;;13.57;5.80;;;14.90;90.00;;;;;;5038311;28;20469;-68
2021/08/18 00:26:09;;;;;;;8.90;5.57;;;14.80;89.80;;;;;;5038564;28;20477;-68
2021/08/18 00:28:53;;;;;;;8.17;5.27;;;14.80;90.40;;;;;;5038253;28;20434;-71
2021/08/18 00:31:20;;;;;;;10.43;6.20;;;14.70;90.50;;;;;;5038419;28;20536;-68
2021/08/18 00:33:48;;;;;;;10.27;6.07;;;14.70;90.60;;;;;;5038031;28;20434;-68
2021/08/18 00:36:21;;;;;;;9.40;5.77;;;14.60;91.00;;;;;;5037728;28;20477;-69
2021/08/18 00:38:48;;;;;;;9.53;5.27;;;14.60;90.90;;;;;;5038030;28;20560;-69
2021/08/18 00:41:18;;;;;;;10.43;6.80;;;14.60;91.00;;;;;;5068902;28;20491;-68
2021/08/18 00:43:45;;;;;;;13.53;6.30;;;14.60;90.70;;;;;;5078011;28;20455;-68
2021/08/18 00:46:13;;;;;;;11.20;6.53;;;14.60;91.30;;;;;;5077315;28;20444;-68
2021/08/18 00:48:40;;;;;;;8.70;5.50;;;14.50;91.40;;;;;;5077322;28;20443;-68
2021/08/18 00:51:07;;;;;;;7.60;5.10;;;14.50;91.40;;;;;;5077159;28;20482;-68
2021/08/18 00:53:35;;;;;;;10.73;5.97;;;14.50;91.80;;;;;;5074030;28;20471;-69
2021/08/18 00:56:05;;;;;;;10.60;5.80;;;14.50;91.80;;;;;;5074434;28;20925;-69
2021/08/18 00:58:32;;;;;;;8.23;5.73;;;14.50;91.80;;;;;;5074904;28;20566;-69
2021/08/18 01:00:59;;;;;;;6.47;4.60;;;14.60;91.50;;;;;;5074628;28;20439;-69
2021/08/18 01:03:33;;;;;;;13.07;5.70;;;14.50;92.20;;;;;;5073753;28;20471;-69
2021/08/18 01:06:00;;;;;;;11.70;5.33;;;14.60;92.10;;;;;;5074435;28;20436;-70
2021/08/18 01:09:11;;;;;;;8.30;5.70;;;14.60;92.20;;;;;;5073770;28;20524;-69
2021/08/18 01:11:38;;;;;;;9.50;5.53;;;14.70;92.00;;;;;;5074563;28;20456;-69
2021/08/18 01:14:39;;;;;;;11.47;6.60;;;14.70;91.90;;;;;;5073585;28;20444;-70
2021/08/18 01:17:06;;;;;;;9.13;5.40;;;14.70;91.80;;;;;;5074877;28;20461;-69
2021/08/18 01:19:35;;;;;;;8.20;5.13;;;14.70;92.00;;;;;;5073561;28;20571;-69
2021/08/18 01:25:30;;;;;;;9.50;6.03;;;14.60;91.60;;;;;;5073897;28;20407;-69
2021/08/18 01:27:59;;;;;;;8.77;5.43;;;14.60;92.00;;;;;;5074480;28;20435;-69
2021/08/18 01:30:46;;;;;;;11.00;5.87;;;14.70;92.50;;;;;;5073230;28;20867;-70
2021/08/18 01:33:15;;;;;;;8.27;5.17;;;14.70;92.60;;;;;;5074582;28;20514;-69
2021/08/18 01:35:45;;;;;;;8.80;5.13;;;14.70;92.30;;;;;;5073396;28;20558;-71
2021/08/18 01:38:14;;;;;;;9.40;5.63;;;14.60;92.00;;;;;;5073326;28;20477;-69
2021/08/18 01:40:56;;;;;;;9.33;6.07;;;14.50;92.40;;;;;;5072665;28;20466;-68
2021/08/18 01:43:24;;;;;;;10.90;6.50;;;14.50;92.30;;;;;;5073972;28;20459;-71
2021/08/18 01:45:53;;;;;;;7.63;4.63;;;14.50;92.40;;;;;;5073081;28;20440;-69
2021/08/18 01:48:39;;;;;;;11.73;6.13;;;14.50;92.70;;;;;;5073602;28;20855;-73
2021/08/18 01:51:06;;;;;;;10.23;6.43;;;14.50;92.90;;;;;;5073726;28;20432;-69
2021/08/18 01:54:26;;;;;;;9.83;5.37;;;14.50;93.00;;;;;;5072643;28;20441;-69
2021/08/18 01:56:55;;;;;;;10.63;5.87;;;14.50;93.10;;;;;;5072855;28;20436;-70
2021/08/18 01:59:28;;;;;;;8.80;5.50;;;14.60;93.00;;;;;;5072917;28;20523;-70
2021/08/18 02:01:57;;;;;;;8.00;5.40;;;14.70;93.20;;;;;;5073617;28;20478;-69
2021/08/18 02:04:31;;;;;;;12.03;6.43;;;14.70;93.10;;;;;;5072648;28;20479;-71
2021/08/18 02:06:59;;;;;;;9.67;5.80;;;14.70;92.70;;;;;;5073638;28;20468;-69
2021/08/18 02:09:45;;;;;;;12.27;5.43;;;14.60;92.70;;;;;;5072287;28;20468;-69
2021/08/18 02:12:12;;;;;;;8.33;4.93;;;14.60;93.10;;;;;;5073608;28;20421;-68
2021/08/18 02:14:39;;;;;;;13.90;5.60;;;14.60;93.30;;;;;;5072292;28;20467;-69
2021/08/18 02:17:17;;;;;;;9.50;6.00;;;14.60;92.80;;;;;;5073188;28;20535;-68
2021/08/18 02:19:44;;;;;;;10.50;5.33;;;14.50;93.10;;;;;;5071773;28;20483;-69
2021/08/18 02:22:12;;;;;;;12.73;6.50;;;14.50;93.40;;;;;;5073311;28;20523;-68
2021/08/18 02:24:39;;;;;;;10.57;5.97;;;14.50;93.40;;;;;;5072861;28;20433;-69
2021/08/18 02:27:06;;;;;;;14.77;7.20;;;14.40;93.50;;;;;;5072726;28;20493;-70
2021/08/18 02:29:34;;;;;;;7.07;4.50;;;14.40;93.80;;;;;;5072892;28;20522;-68
2021/08/18 02:32:01;;;;;;;11.40;6.03;;;14.40;94.00;;;;;;5072580;28;20527;-70
2021/08/18 02:34:29;;;;;;;11.30;6.23;;;14.40;94.30;;;;;;5072219;28;20522;-69
2021/08/18 02:36:56;;;;;;;11.20;5.50;;;14.40;94.40;;;;;;5072852;28;20489;-70
2021/08/18 02:39:23;;;;;;;9.37;5.50;;;14.50;94.40;;;;;;5071762;28;20541;-69
2021/08/18 02:41:50;;;;;;;10.10;6.40;;;14.50;93.60;;;;;;5073169;28;20845;-69
2021/08/18 02:44:17;;;;;;;10.53;6.43;;;14.50;93.50;;;;;;5072299;28;20468;-69
2021/08/18 02:46:54;;;;;;;10.20;6.73;;;14.50;93.60;;;;;;5072419;28;20531;-69
2021/08/18 02:49:21;;;;;;;11.50;6.40;;;14.50;94.00;;;;;;5072808;28;20468;-70
2021/08/18 02:51:49;;;;;;;25.73;7.53;;;14.50;93.60;;;;;;5072522;28;20501;-68
2021/08/18 02:54:19;;;;;;;10.93;6.37;;;14.50;93.40;;;;;;5071671;28;20447;-69
2021/08/18 02:56:47;;;;;;;12.93;6.00;;;14.50;93.30;;;;;;5071979;28;20845;-69
2021/08/18 02:59:14;;;;;;;12.10;5.50;;;14.50;93.80;;;;;;5071480;28;20491;-68
2021/08/18 03:01:51;;;;;;;10.57;6.37;;;14.50;93.90;;;;;;5072029;28;20972;-70
2021/08/18 03:04:19;;;;;;;9.43;6.23;;;14.60;94.20;;;;;;5071044;28;20918;-68
2021/08/18 03:06:46;;;;;;;9.20;5.30;;;14.60;93.90;;;;;;5072134;28;20522;-69
2021/08/18 03:09:14;;;;;;;8.83;5.20;;;14.60;94.10;;;;;;5072161;28;20444;-68
2021/08/18 03:11:41;;;;;;;11.97;6.37;;;14.60;93.90;;;;;;5071915;28;20468;-72
2021/08/18 03:14:08;;;;;;;11.10;7.27;;;14.70;93.90;;;;;;5071532;28;20476;-69
2021/08/18 03:17:01;;;;;;;10.20;5.33;;;14.70;94.10;;;;;;5071604;28;20519;-68
2021/08/18 03:19:29;;;;;;;14.03;7.47;;;14.60;93.80;;;;;;5072377;28;21240;-72
2021/08/18 03:21:56;;;;;;;11.47;7.10;;;14.60;93.90;;;;;;5071657;28;20483;-69
2021/08/18 03:24:24;;;;;;;13.03;6.27;;;14.60;93.90;;;;;;5071546;28;20447;-69
2021/08/18 03:26:51;;;;;;;12.33;6.77;;;14.60;93.50;;;;;;5071717;28;20471;-69
2021/08/18 03:29:18;;;;;;;10.27;5.77;;;14.60;93.70;;;;;;5071778;28;20480;-68
2021/08/18 03:31:46;;;;;;;13.63;6.70;;;14.60;93.80;;;;;;5071571;28;20476;-69
2021/08/18 03:34:44;;;;;;;12.60;6.60;;;14.60;93.90;;;;;;5071423;28;20447;-74
2021/08/18 03:37:12;;;;;;;11.07;7.20;;;14.60;93.90;;;;;;5072269;28;20432;-69
2021/08/18 03:39:41;;;;;;;13.10;6.97;;;14.70;93.90;;;;;;5071439;28;20989;-69
2021/08/18 03:42:08;;;;;;;17.53;8.20;;;14.70;93.60;;;;;;5072429;28;20467;-68
2021/08/18 03:44:35;;;;;;;12.23;6.70;;;14.50;94.00;;;;;;5071315;28;20440;-69
2021/08/18 03:47:33;;;;;;;14.97;8.30;;;14.50;94.20;;;;;;5071568;28;20482;-69
2021/08/18 03:50:00;;;;;;;17.10;8.00;;;14.40;94.40;;;;;;5072261;28;20447;-69
2021/08/18 03:52:40;;;;;;;11.53;7.00;;;14.40;94.40;;;;;;5071548;28;20479;-69
2021/08/18 03:55:18;;;;;;;14.43;7.43;;;14.40;94.20;;;;;;5071630;28;20446;-69
2021/08/18 03:57:45;;;;;;;15.37;8.80;;;14.40;94.50;;;;;;5071618;28;20453;-70
2021/08/18 04:00:16;;;;;;;13.27;7.03;;;14.30;94.40;;;;;;5070977;28;20561;-69
2021/08/18 04:02:43;;;;;;;13.87;7.60;;;14.30;94.40;;;;;;5070834;28;20942;-71
2021/08/18 04:05:11;;;;;;;12.90;7.53;;;14.30;94.70;;;;;;5071863;28;20927;-69
2021/08/18 04:07:47;;;;;;;12.83;7.23;;;14.40;94.80;;;;;;5071260;28;20440;-69
2021/08/18 04:10:16;;;;;;;14.30;7.77;;;14.40;94.80;;;;;;5069113;28;20991;-68
2021/08/18 04:12:56;;;;;;;17.70;8.80;;;14.40;94.60;;;;;;5070983;28;20468;-69
2021/08/18 04:15:25;;;;;;;12.80;8.50;;;14.50;94.70;;;;;;5071596;28;20545;-69
2021/08/18 04:21:17;;;;;;;11.40;6.23;;;14.60;94.80;;;;;;5070982;28;20497;-69
2021/08/18 04:23:45;;;;;;;13.37;7.93;;;14.60;94.70;;;;;;5071681;28;20440;-72
2021/08/18 04:26:14;;;;;;;12.20;6.97;;;14.60;94.90;;;;;;5071322;28;20436;-69
2021/08/18 04:35:37;;;;;;;13.30;7.33;;;14.70;95.00;;;;;;5075143;28;20439;-68
2021/08/18 04:38:30;;;;;;;18.20;8.67;;;14.80;94.60;;;;;;5074384;28;20446;-71
2021/08/18 04:45:31;;;;;;;13.87;7.40;;;14.80;93.40;;;;;;5094799;28;20406;-70
2021/08/18 04:48:00;;;;;;;18.53;8.90;;;14.90;93.70;;;;;;5094782;28;20921;-69
2021/08/18 04:54:26;;;;;;;12.27;7.63;;;14.90;93.60;;;;;;5094660;28;20394;-69
2021/08/18 04:56:53;;;;;;;15.53;7.73;;;14.90;93.70;;;;;;5094976;28;20470;-69
2021/08/18 04:59:20;;;;;;;14.60;9.10;;;14.90;93.10;;;;;;5094294;28;20519;-72
2021/08/18 05:01:49;;;;;;;15.23;8.37;;;14.80;93.30;;;;;;5094572;28;20794;-68
2021/08/18 05:04:17;;;;;;;15.63;9.13;;;14.80;93.50;;;;;;5094799;28;20435;-69
2021/08/18 05:07:34;;;;;;;15.60;8.50;;;14.80;93.40;;;;;;5094338;28;20439;-70
2021/08/18 05:10:01;;;;;;;13.90;8.30;;;14.90;93.30;;;;;;5094397;28;20435;-69
2021/08/18 05:19:50;;;;;;;14.10;9.27;;;15.10;93.40;;;;;;5094453;28;20452;-70
2021/08/18 05:22:17;;;;;;;16.00;8.87;;;15.00;92.40;;;;;;5094811;28;20423;-70
2021/08/18 05:28:08;;;;;;;13.87;8.90;;;15.00;92.30;;;;;;5093652;28;20411;-70
2021/08/18 05:30:46;;;;;;;14.93;8.83;;;15.00;92.20;;;;;;5093824;28;20979;-69
2021/08/18 05:33:13;;;;;;;14.73;8.73;;;15.10;92.60;;;;;;5094170;28;20439;-70
2021/08/18 05:35:42;;;;;;;16.07;8.67;;;15.20;93.30;;;;;;5093243;28;20667;-69
2021/08/18 05:38:09;;;;;;;12.17;8.13;;;15.20;91.70;;;;;;5093777;28;20451;-69
2021/08/18 05:40:36;;;;;;;15.53;8.50;;;15.20;92.00;;;;;;5092997;28;20518;-69
2021/08/18 05:43:03;;;;;;;12.33;7.97;;;15.20;91.30;;;;;;5085615;28;20856;-70
2021/08/18 05:53:15;;;;;;;11.67;7.60;;;15.10;91.60;;;;;;5093284;28;20405;-70
2021/08/18 05:55:43;;;;;;;18.33;9.27;;;15.10;91.60;;;;;;5094032;28;20970;-69
2021/08/18 06:04:55;;;;;;;13.17;8.00;;;15.10;92.10;;;;;;5093256;28;20414;-69
2021/08/18 06:18:24;;;;;;;11.20;7.97;;;15.30;92.20;;;;;;5093369;28;20399;-70
2021/08/18 06:20:52;;;;;;;15.93;9.23;;;15.30;91.70;;;;;;5092884;28;20485;-71
2021/08/18 06:23:23;;;;;;;11.40;7.40;;;15.30;91.90;;;;;;5092519;28;20471;-69
2021/08/18 06:25:52;;;;;;;13.73;8.30;;;15.40;91.60;;;;;;5093199;28;20467;-69
2021/08/18 06:28:19;;;;;;;14.63;8.23;;;15.40;91.80;;;;;;5092150;28;20438;-69
2021/08/18 06:30:46;;;;;;;15.70;10.30;;;15.50;92.00;;;;;;5092229;28;20518;-69
2021/08/18 06:33:14;;;;;;;15.10;9.40;;;15.60;92.20;;;;;;5093302;28;20482;-69
2021/08/18 06:35:41;;;;;;;12.83;7.57;;;15.60;91.70;;;;;;5092844;28;20831;-70
2021/08/18 06:38:51;;;;;;;13.07;7.37;;;15.70;91.70;;;;;;5092358;28;20758;-69
2021/08/18 06:41:22;;;;;;;15.70;9.10;;;15.70;91.60;;;;;;5092246;28;20587;-70
2021/08/18 06:43:49;;;;;;;14.87;8.67;;;15.80;91.60;;;;;;5092713;28;20475;-71
2021/08/18 06:46:25;;;;;;;12.43;8.20;;;15.80;91.90;;;;;;5092477;28;20439;-69
2021/08/18 06:48:52;;;;;;;13.27;8.60;;;15.80;91.00;;;;;;5092668;28;20518;-69
2021/08/18 06:51:22;;;;;;;15.50;9.00;;;15.70;90.80;;;;;;5091580;28;20471;-69
2021/08/18 06:53:49;;;;;;;13.30;8.20;;;15.70;91.50;;;;;;5092356;28;20518;-70
2021/08/18 07:03:09;;;;;;;11.17;7.67;;;16.00;91.10;;;;;;5092829;28;20414;-70
2021/08/18 07:05:36;;;;;;;18.13;8.40;;;16.00;90.80;;;;;;5092461;28;20426;-69
2021/08/18 07:08:06;;;;;;;14.30;7.77;;;16.10;90.50;;;;;;5091553;28;20518;-70
2021/08/18 07:14:38;;;;;;;12.07;8.53;;;16.20;90.70;;;;;;5092162;28;20457;-69
2021/08/18 07:17:06;;;;;;;17.77;8.00;;;16.20;90.80;;;;;;5092377;28;20431;-69
2021/08/18 07:33:25;;;;;;;12.33;8.10;;;16.70;90.20;;;;;;5092277;28;20452;-69
2021/08/18 07:35:53;;;;;;;14.13;8.97;;;16.80;90.30;;;;;;5092033;28;20510;-69
2021/08/18 07:48:31;;;;;;;17.43;8.33;;;17.00;90.10;;;;;;5071610;28;20857;-70
2021/08/18 08:01:50;;;;;;;16.03;8.97;;;17.30;88.20;;;;;;5071702;28;20472;-70
2021/08/18 08:04:19;;;;;;;13.10;8.57;;;17.30;87.50;;;;;;5075203;28;20918;-70
2021/08/18 08:07:45;;;;;;;12.57;8.20;;;17.40;87.90;;;;;;5075232;28;20463;-69
2021/08/18 08:10:14;;;;;;;15.17;8.17;;;17.30;86.70;;;;;;5074997;28;20428;-70
2021/08/18 08:23:25;;;;;;;11.40;7.10;;;17.50;87.00;;;;;;5075470;28;20943;-73
2021/08/18 08:25:52;;;;;;;14.27;8.77;;;17.50;86.90;;;;;;5075486;28;20470;-69
2021/08/18 08:28:19;;;;;;;15.03;8.83;;;17.50;86.10;;;;;;5074577;28;20477;-69
2021/08/18 08:34:45;;;;;;;13.40;7.13;;;17.50;83.20;;;;;;5075176;28;20759;-69
2021/08/18 08:37:17;;;;;;;13.93;8.33;;;17.50;81.90;;;;;;5074730;28;20446;-70
2021/08/18 08:39:58;;;;;;;13.40;7.50;;;17.40;80.90;;;;;;5072763;28;20439;-69
2021/08/18 08:42:36;;;;;;;11.93;7.90;;;17.40;82.30;;;;;;5074579;28;20503;-72
2021/08/18 08:45:05;;;;;;;10.93;7.47;;;17.50;83.30;;;;;;5070477;28;20439;-69
2021/08/18 09:01:23;;;;;;;11.97;7.00;;;18.20;84.50;;;;;;5074252;28;20474;-70
2021/08/18 09:03:50;;;;;;;14.73;7.40;;;18.30;83.20;;;;;;5074549;28;20520;-70
2021/08/18 09:23:15;;;;;;;11.37;7.33;;;18.90;80.20;;;;;;5073641;28;20458;-72
2021/08/18 09:25:45;;;;;;;13.17;7.10;;;19.10;80.60;;;;;;5074054;28;20463;-69
2021/08/18 09:38:20;;;;;;;14.10;7.17;;;21.10;81.50;;;;;;5074006;28;20531;-70
2021/08/18 09:51:33;;;;;;;11.80;7.87;;;23.30;69.40;;;;;;5090926;28;20525;-69
2021/08/18 09:57:34;;;;;;;15.53;8.13;;;23.40;66.60;;;;;;5094140;28;21070;-70
2021/08/18 10:00:02;;;;;;;10.57;7.70;;;23.40;64.00;;;;;;5093906;28;20422;-70
2021/08/18 10:13:03;;;;;;;14.93;8.20;;;23.40;60.30;;;;;;5093367;28;20446;-69
2021/08/18 10:15:30;;;;;;;12.67;9.23;;;23.50;61.60;;;;;;5093330;28;20506;-69
2021/08/18 10:18:41;;;;;;;14.90;9.63;;;23.50;61.40;;;;;;5092288;28;20841;-69
2021/08/18 10:21:11;;;;;;;12.23;8.67;;;23.40;59.50;;;;;;5093250;28;20514;-69
2021/08/18 10:34:04;;;;;;;11.73;8.50;;;23.10;59.00;;;;;;5092570;28;20445;-69
2021/08/18 10:37:01;;;;;;;18.67;10.97;;;23.00;58.90;;;;;;5093060;28;20517;-69
2021/08/18 10:39:37;;;;;;;15.23;10.40;;;23.00;59.40;;;;;;5092233;28;20504;-70
2021/08/18 10:42:14;;;;;;;10.70;7.60;;;23.10;60.20;;;;;;5113093;28;20484;-69
2021/08/18 10:47:40;;;;;;;12.17;7.23;;;23.80;59.60;;;;;;5069506;28;20412;-70
2021/08/18 10:53:32;;;;;;;11.77;8.03;;;24.10;59.90;;;;;;5102779;28;20555;-68
2021/08/18 11:06:12;;;;;;;11.97;8.73;;;25.20;55.20;;;;;;5112725;28;20460;-69
2021/08/18 11:08:43;;;;;;;9.70;7.33;;;25.30;56.60;;;;;;5113010;28;20783;-69
2021/08/18 11:11:13;;;;;;;10.40;7.20;;;25.30;55.70;;;;;;5111683;28;20522;-69
2021/08/18 11:14:34;;;;;;;10.33;7.30;;;25.40;55.30;;;;;;5111963;28;20923;-70
2021/08/18 11:19:55;;;;;;;10.00;7.20;;;26.00;54.70;;;;;;5110719;28;20485;-70
2021/08/18 11:22:25;;;;;;;9.07;7.17;;;26.30;54.70;;;;;;5111805;28;21075;-69
2021/08/18 11:25:02;;;;;;;10.47;6.03;;;26.50;53.70;;;;;;5113139;28;20458;-69
2021/08/18 11:30:14;;;;;;;12.47;7.70;;;26.90;53.40;;;;;;5111666;28;20495;-69
2021/08/18 11:32:43;;;;;;;11.70;7.20;;;27.00;51.50;;;;;;5112338;28;20957;-74
2021/08/18 11:35:12;;;;;;;9.80;6.70;;;27.10;52.50;;;;;;5112271;28;20435;-72
2021/08/18 11:38:02;;;;;;;11.27;8.03;;;27.30;51.60;;;;;;5111566;28;20462;-69
2021/08/18 11:40:31;;;;;;;8.97;6.73;;;27.50;51.50;;;;;;5112547;28;20465;-69
2021/08/18 11:53:07;;;;;;;8.93;6.67;;;28.00;50.00;;;;;;5108190;28;20461;-70
2021/08/18 11:56:03;;;;;;;9.60;6.20;;;27.80;48.40;;;;;;5111713;28;20436;-69
2021/08/18 11:58:38;;;;;;;9.30;6.50;;;27.60;49.00;;;;;;5112408;28;20463;-70
2021/08/18 12:01:08;;;;;;;9.23;6.67;;;27.40;49.20;;;;;;5112054;28;20473;-70
2021/08/18 12:03:46;;;;;;;10.00;6.37;;;27.30;50.00;;;;;;5111884;28;20954;-69
2021/08/18 12:06:13;;;;;;;11.10;6.60;;;27.30;49.60;;;;;;5093969;28;20441;-72
2021/08/18 12:08:52;;;;;;;8.00;5.83;;;27.30;49.80;;;;;;5111488;28;20495;-70
2021/08/18 12:11:31;;;;;;;8.53;6.30;;;27.30;49.60;;;;;;5112368;28;20495;-70
2021/08/18 12:17:00;;;;;;;10.30;7.43;;;27.20;49.50;;;;;;5110737;28;20467;-70
2021/08/18 12:19:29;;;;;;;11.47;6.57;;;27.20;48.70;;;;;;5111757;28;20520;-70
2021/08/18 12:22:21;;;;;;;12.77;8.53;;;27.20;48.30;;;;;;5111381;28;20482;-71
2021/08/18 12:24:50;;;;;;;8.87;7.00;;;27.20;47.50;;;;;;5111749;28;20488;-69
2021/08/18 12:27:24;;;;;;;10.73;6.70;;;27.30;47.90;;;;;;5111813;28;20433;-68
2021/08/18 12:30:03;;;;;;;9.30;6.97;;;27.40;47.80;;;;;;5112533;28;20435;-68
2021/08/18 12:32:30;;;;;;;9.63;7.37;;;27.40;48.00;;;;;;5111398;28;20469;-68
2021/08/18 12:38:21;;;;;;;13.53;7.80;;;27.40;47.90;;;;;;5111774;28;20431;-68
2021/08/18 12:41:02;;;;;;;7.73;5.90;;;27.30;48.20;;;;;;5112365;28;20453;-68
2021/08/18 12:43:31;;;;;;;8.70;5.73;;;27.40;48.30;;;;;;5112084;28;20426;-72
2021/08/18 12:45:58;;;;;;;11.17;7.20;;;27.50;48.90;;;;;;5111921;28;20477;-69
2021/08/18 12:48:33;;;;;;;10.30;7.53;;;27.70;48.10;;;;;;5112349;28;20470;-69
2021/08/18 12:51:11;;;;;;;14.40;6.23;;;27.90;47.50;;;;;;5114986;28;20920;-69
2021/08/18 12:53:38;;;;;;;9.07;4.77;;;28.00;47.90;;;;;;5114856;28;20458;-68
2021/08/18 12:56:05;;;;;;;6.87;5.00;;;28.20;46.90;;;;;;5115273;28;20528;-69
2021/08/18 13:02:14;;;;;;;5.63;4.43;;;28.40;46.70;;;;;;5115547;28;20473;-68
2021/08/18 13:04:41;;;;;;;6.97;5.80;;;28.40;46.20;;;;;;5114970;28;20433;-68
2021/08/18 13:08:04;;;;;;;14.23;6.60;;;28.40;45.90;;;;;;5114500;28;20466;-68
2021/08/18 13:10:32;;;;;;;6.40;5.07;;;28.40;47.30;;;;;;5114745;28;20511;-70
2021/08/18 13:19:50;;;;;;;7.20;4.70;;;28.30;46.20;;;;;;5115108;28;20463;-68
2021/08/18 13:22:17;;;;;;;6.77;5.00;;;28.20;45.20;;;;;;5114714;28;20843;-68
2021/08/18 13:24:47;;;;;;;7.90;5.60;;;27.90;44.60;;;;;;5114189;28;20482;-68
2021/08/18 13:27:15;;;;;;;7.30;5.37;;;27.70;45.70;;;;;;5115034;28;20497;-67
2021/08/18 13:29:51;;;;;;;6.13;4.23;;;27.70;45.00;;;;;;5114360;28;20440;-68
2021/08/18 13:32:19;;;;;;;6.97;4.77;;;27.70;46.10;;;;;;5111094;28;20905;-68
2021/08/18 13:34:59;;;;;;;6.87;5.07;;;27.70;45.30;;;;;;5114592;28;20431;-68
